sensor_id;sensor_type;location;lat;lon;timestamp;temperature;humidity
7796;DHT22;3942;51.518;6.912;2023-04-03T00:00:04;4.60;1.00
7796;DHT22;3942;51.518;6.912;2023-04-03T00:05:09;4.20;1.00
7796;DHT22;3942;51.518;6.912;2023-04-03T00:10:12;4.00;99.90
7796;DHT22;3942;51.518;6.912;2023-04-03T00:15:15;3.70;99.90
7796;DHT22;3942;51.518;6.912;2023-04-03T00:20:18;4.20;92.90
7796;DHT22;3942;51.518;6.912;2023-04-03T00:25:21;3.80;99.90
7796;DHT22;3942;51.518;6.912;2023-04-03T00:30:23;4.80;99.90
7796;DHT22;3942;51.518;6.912;2023-04-03T00:35:27;4.00;99.90
7796;DHT22;3942;51.518;6.912;2023-04-03T00:40:33;4.20;99.90
7796;DHT22;3942;51.518;6.912;2023-04-03T00:45:37;3.70;99.90
7796;DHT22;3942;51.518;6.912;2023-04-03T00:50:43;3.80;99.90
7796;DHT22;3942;51.518;6.912;2023-04-03T00:55:47;3.60;3.50
7796;DHT22;3942;51.518;6.912;2023-04-03T01:00:54;3.10;99.90
7796;DHT22;3942;51.518;6.912;2023-04-03T01:05:59;3.00;99.90
7796;DHT22;3942;51.518;6.912;2023-04-03T01:11:01;3.00;99.90
7796;DHT22;3942;51.518;6.912;2023-04-03T01:16:03;3.20;99.90
7796;DHT22;3942;51.518;6.912;2023-04-03T01:21:40;3.40;63.60
7796;DHT22;3942;51.518;6.912;2023-04-03T01:26:43;3.40;1.00
7796;DHT22;3942;51.518;6.912;2023-04-03T01:31:50;3.50;39.20
7796;DHT22;3942;51.518;6.912;2023-04-03T01:36:52;4.10;1.00
7796;DHT22;3942;51.518;6.912;2023-04-03T01:41:54;3.40;99.90
7796;DHT22;3942;51.518;6.912;2023-04-03T01:46:57;3.40;99.90
7796;DHT22;3942;51.518;6.912;2023-04-03T01:51:59;3.40;1.00
7796;DHT22;3942;51.518;6.912;2023-04-03T01:57:01;3.50;1.00
7796;DHT22;3942;51.518;6.912;2023-04-03T02:02:04;3.40;99.90
7796;DHT22;3942;51.518;6.912;2023-04-03T02:07:06;3.60;99.90
7796;DHT22;3942;51.518;6.912;2023-04-03T02:12:08;3.90;99.90
7796;DHT22;3942;51.518;6.912;2023-04-03T02:17:11;3.80;1.00
7796;DHT22;3942;51.518;6.912;2023-04-03T02:22:13;3.30;1.00
7796;DHT22;3942;51.518;6.912;2023-04-03T02:27:15;3.30;1.00
7796;DHT22;3942;51.518;6.912;2023-04-03T02:32:19;3.30;1.00
7796;DHT22;3942;51.518;6.912;2023-04-03T02:37:20;3.30;1.00
7796;DHT22;3942;51.518;6.912;2023-04-03T02:42:22;3.20;1.00
7796;DHT22;3942;51.518;6.912;2023-04-03T02:47:26;3.10;1.00
7796;DHT22;3942;51.518;6.912;2023-04-03T02:52:28;3.10;1.00
7796;DHT22;3942;51.518;6.912;2023-04-03T02:57:29;3.40;15.10
7796;DHT22;3942;51.518;6.912;2023-04-03T03:02:32;3.00;1.00
7796;DHT22;3942;51.518;6.912;2023-04-03T03:07:34;3.70;41.90
7796;DHT22;3942;51.518;6.912;2023-04-03T03:12:36;3.10;1.00
7796;DHT22;3942;51.518;6.912;2023-04-03T03:17:39;3.10;1.00
7796;DHT22;3942;51.518;6.912;2023-04-03T03:22:41;3.10;1.00
7796;DHT22;3942;51.518;6.912;2023-04-03T03:27:43;2.80;22.40
7796;DHT22;3942;51.518;6.912;2023-04-03T03:32:47;2.80;58.30
7796;DHT22;3942;51.518;6.912;2023-04-03T03:37:49;2.80;99.90
7796;DHT22;3942;51.518;6.912;2023-04-03T03:42:51;2.60;99.90
7796;DHT22;3942;51.518;6.912;2023-04-03T03:47:54;2.70;99.90
7796;DHT22;3942;51.518;6.912;2023-04-03T03:52:56;2.50;1.00
7796;DHT22;3942;51.518;6.912;2023-04-03T03:57:58;2.90;1.00
7796;DHT22;3942;51.518;6.912;2023-04-03T04:03:01;2.50;1.00
7796;DHT22;3942;51.518;6.912;2023-04-03T04:08:03;2.40;1.00
7796;DHT22;3942;51.518;6.912;2023-04-03T04:13:05;2.40;1.00
7796;DHT22;3942;51.518;6.912;2023-04-03T04:18:09;2.30;39.10
7796;DHT22;3942;51.518;6.912;2023-04-03T04:23:10;2.30;99.90
7796;DHT22;3942;51.518;6.912;2023-04-03T04:28:12;2.60;99.90
7796;DHT22;3942;51.518;6.912;2023-04-03T04:33:16;2.80;99.90
7796;DHT22;3942;51.518;6.912;2023-04-03T04:38:17;2.20;99.90
7796;DHT22;3942;51.518;6.912;2023-04-03T04:43:19;2.10;1.00
7796;DHT22;3942;51.518;6.912;2023-04-03T04:48:23;2.00;1.00
7796;DHT22;3942;51.518;6.912;2023-04-03T04:53:24;2.00;1.00
7796;DHT22;3942;51.518;6.912;2023-04-03T04:58:28;2.10;1.00
7796;DHT22;3942;51.518;6.912;2023-04-03T05:03:32;2.00;1.00
7796;DHT22;3942;51.518;6.912;2023-04-03T05:08:34;1.80;99.90
7796;DHT22;3942;51.518;6.912;2023-04-03T05:13:36;1.80;74.40
7796;DHT22;3942;51.518;6.912;2023-04-03T05:18:39;2.00;99.90
7796;DHT22;3942;51.518;6.912;2023-04-03T05:23:41;2.10;1.00
7796;DHT22;3942;51.518;6.912;2023-04-03T05:28:43;3.30;99.90
7796;DHT22;3942;51.518;6.912;2023-04-03T05:33:46;3.00;13.70
7796;DHT22;3942;51.518;6.912;2023-04-03T05:38:48;2.60;1.00
7796;DHT22;3942;51.518;6.912;2023-04-03T05:43:50;3.00;99.90
7796;DHT22;3942;51.518;6.912;2023-04-03T05:48:53;3.30;1.00
7796;DHT22;3942;51.518;6.912;2023-04-03T05:54:00;3.10;1.00
7796;DHT22;3942;51.518;6.912;2023-04-03T05:59:03;3.50;99.90
7796;DHT22;3942;51.518;6.912;2023-04-03T06:04:06;3.30;6.00
7796;DHT22;3942;51.518;6.912;2023-04-03T06:09:09;3.80;1.00
7796;DHT22;3942;51.518;6.912;2023-04-03T06:14:11;3.60;99.90
7796;DHT22;3942;51.518;6.912;2023-04-03T06:19:14;3.50;99.90
7796;DHT22;3942;51.518;6.912;2023-04-03T06:24:17;4.50;28.20
7796;DHT22;3942;51.518;6.912;2023-04-03T06:29:20;4.30;99.90
7796;DHT22;3942;51.518;6.912;2023-04-03T06:34:23;4.50;99.90
7796;DHT22;3942;51.518;6.912;2023-04-03T06:39:25;4.10;99.90
7796;DHT22;3942;51.518;6.912;2023-04-03T06:44:27;5.00;1.00
7796;DHT22;3942;51.518;6.912;2023-04-03T06:49:31;4.80;66.10
7796;DHT22;3942;51.518;6.912;2023-04-03T06:54:33;4.70;1.00
7796;DHT22;3942;51.518;6.912;2023-04-03T06:59:36;5.30;99.90
7796;DHT22;3942;51.518;6.912;2023-04-03T07:04:39;5.60;99.90
7796;DHT22;3942;51.518;6.912;2023-04-03T07:09:41;5.30;1.00
7796;DHT22;3942;51.518;6.912;2023-04-03T07:14:43;5.80;1.00
7796;DHT22;3942;51.518;6.912;2023-04-03T07:19:46;5.80;1.00
7796;DHT22;3942;51.518;6.912;2023-04-03T07:24:48;6.00;1.00
7796;DHT22;3942;51.518;6.912;2023-04-03T07:29:50;5.60;1.00
7796;DHT22;3942;51.518;6.912;2023-04-03T07:34:53;5.70;99.90
7796;DHT22;3942;51.518;6.912;2023-04-03T07:39:55;5.80;99.90
7796;DHT22;3942;51.518;6.912;2023-04-03T07:44:58;6.10;99.90
7796;DHT22;3942;51.518;6.912;2023-04-03T07:50:02;6.70;99.90
7796;DHT22;3942;51.518;6.912;2023-04-03T07:55:04;6.10;99.90
7796;DHT22;3942;51.518;6.912;2023-04-03T08:00:07;6.20;16.80
7796;DHT22;3942;51.518;6.912;2023-04-03T08:05:11;5.90;77.90
7796;DHT22;3942;51.518;6.912;2023-04-03T08:10:14;6.00;74.70
7796;DHT22;3942;51.518;6.912;2023-04-03T08:15:16;6.60;1.00
7796;DHT22;3942;51.518;6.912;2023-04-03T08:20:20;6.40;1.00
7796;DHT22;3942;51.518;6.912;2023-04-03T08:25:22;6.50;1.00
7796;DHT22;3942;51.518;6.912;2023-04-03T08:30:24;6.40;1.00
7796;DHT22;3942;51.518;6.912;2023-04-03T08:35:27;6.60;1.00
7796;DHT22;3942;51.518;6.912;2023-04-03T08:51:23;7.60;99.90
7796;DHT22;3942;51.518;6.912;2023-04-03T09:16:51;7.70;99.90
7796;DHT22;3942;51.518;6.912;2023-04-03T09:21:58;4.90;99.90
7796;DHT22;3942;51.518;6.912;2023-04-03T09:32:18;6.70;99.90
7796;DHT22;3942;51.518;6.912;2023-04-03T09:37:37;6.90;99.90
7796;DHT22;3942;51.518;6.912;2023-04-03T09:42:41;6.50;99.90
7796;DHT22;3942;51.518;6.912;2023-04-03T09:52:49;6.80;99.90
7796;DHT22;3942;51.518;6.912;2023-04-03T09:57:52;7.00;99.90
7796;DHT22;3942;51.518;6.912;2023-04-03T10:08:21;6.80;99.90
7796;DHT22;3942;51.518;6.912;2023-04-03T10:18:32;6.80;99.90
7796;DHT22;3942;51.518;6.912;2023-04-03T10:23:43;7.10;99.90
7796;DHT22;3942;51.518;6.912;2023-04-03T10:28:51;7.00;61.30
7796;DHT22;3942;51.518;6.912;2023-04-03T10:44:16;7.10;80.80
7796;DHT22;3942;51.518;6.912;2023-04-03T10:54:37;7.20;92.20
7796;DHT22;3942;51.518;6.912;2023-04-03T10:59:43;7.30;99.90
7796;DHT22;3942;51.518;6.912;2023-04-03T11:25:19;7.10;94.00
7796;DHT22;3942;51.518;6.912;2023-04-03T11:30:25;7.20;94.60
7796;DHT22;3942;51.518;6.912;2023-04-03T12:27:28;7.60;44.50
7796;DHT22;3942;51.518;6.912;2023-04-03T12:58:24;7.70;54.80
7796;DHT22;3942;51.518;6.912;2023-04-03T13:18:37;7.80;64.10
7796;DHT22;3942;51.518;6.912;2023-04-03T13:33:54;7.90;57.10
7796;DHT22;3942;51.518;6.912;2023-04-03T13:38:59;8.00;60.00
7796;DHT22;3942;51.518;6.912;2023-04-03T13:44:27;8.10;55.70
7796;DHT22;3942;51.518;6.912;2023-04-03T13:49:33;7.90;52.30
7796;DHT22;3942;51.518;6.912;2023-04-03T13:54:38;8.10;63.10
7796;DHT22;3942;51.518;6.912;2023-04-03T13:59:42;8.20;65.00
7796;DHT22;3942;51.518;6.912;2023-04-03T14:04:50;8.10;66.60
7796;DHT22;3942;51.518;6.912;2023-04-03T14:09:54;8.20;61.00
7796;DHT22;3942;51.518;6.912;2023-04-03T16:31:19;7.80;82.60
7796;DHT22;3942;51.518;6.912;2023-04-03T16:36:21;7.80;99.90
7796;DHT22;3942;51.518;6.912;2023-04-03T17:01:35;7.40;95.20
7796;DHT22;3942;51.518;6.912;2023-04-03T17:16:43;7.40;94.60
7796;DHT22;3942;51.518;6.912;2023-04-03T18:02:09;6.90;99.90
7796;DHT22;3942;51.518;6.912;2023-04-03T18:22:22;6.70;99.90
7796;DHT22;3942;51.518;6.912;2023-04-03T18:27:25;6.60;99.90
7796;DHT22;3942;51.518;6.912;2023-04-03T18:32:29;6.60;99.90
7796;DHT22;3942;51.518;6.912;2023-04-03T18:47:36;6.80;99.90
7796;DHT22;3942;51.518;6.912;2023-04-03T19:02:44;6.30;99.90
7796;DHT22;3942;51.518;6.912;2023-04-03T19:12:49;5.90;99.90
7796;DHT22;3942;51.518;6.912;2023-04-03T19:33:01;5.90;99.90
7796;DHT22;3942;51.518;6.912;2023-04-03T19:48:09;5.60;1.00
7796;DHT22;3942;51.518;6.912;2023-04-03T20:03:21;5.60;99.90
7796;DHT22;3942;51.518;6.912;2023-04-03T20:18:31;5.50;99.90
7796;DHT22;3942;51.518;6.912;2023-04-03T20:33:40;5.40;99.90
7796;DHT22;3942;51.518;6.912;2023-04-03T20:48:48;5.20;99.90
7796;DHT22;3942;51.518;6.912;2023-04-03T20:58:53;5.20;99.90
7796;DHT22;3942;51.518;6.912;2023-04-03T21:20:23;5.10;8.40
7796;DHT22;3942;51.518;6.912;2023-04-03T21:50:40;4.60;99.90
7796;DHT22;3942;51.518;6.912;2023-04-03T22:05:48;4.70;99.90
7796;DHT22;3942;51.518;6.912;2023-04-03T22:20:56;4.60;99.90
7796;DHT22;3942;51.518;6.912;2023-04-03T22:36:07;4.70;99.90
7796;DHT22;3942;51.518;6.912;2023-04-03T23:06:24;4.00;1.00
7796;DHT22;3942;51.518;6.912;2023-04-03T23:36:41;4.10;1.00
